Weather at Lund Hospital Heliport

Public forecast

Using degrees Celsius for public forecast. Weather courtesy of forecast.io.

Closest aviation weather report (METAR) to Lund Hospital Heliport

Report is more than 6 hours old.

Closest report is Malmö Sturup Airport, 12.1 nm (22.5 km) SSE.

2022/11/14 15:20 (retrieved 2 years ago)

ESMS 141520Z 10008KT 9999 BKN013 09/06 Q1019

Closest aviation forecast (TAF) to Lund Hospital Heliport

Forecast is more than 12 hours old.

Closest forecast is Malmö Sturup Airport, 12.1 nm (22.5 km) SSE.

2023/02/22 21:06 (retrieved 1 year ago)

TAF TAF ESMS 222001Z 2221/2321 12013KT 9999 BKN025 TEMPO 2303/2306 BKN010 BECMG 2306/2308 18008KT 2000 RADZ BR BKN004 TEMPO 2308/2321 6000 NSW BKN007